Hauptseite
METAR-TAF:

METAR-TAF

Flughäfen :

Mendoza, Argentinien

Flughafen Mendoza

Breite: 32-50S, Länge: 068-47W, Höhe: 705 m

Beobachtung

Neuester Wetterbericht von vor 1 Stunde und 3 Minuten, um 22:00 UTC
Wind 15 kt aus Ost/Südost
Temperatur 25°C
Luftfeuchtigkeit 13%
Luftdruck 1010 hPa
Sichtweite 10 km oder mehr
keine Wolken unter 1500 m und keine Kumulonimbus oder Gewitterwolken

METAR: SAME 172200Z 11015KT CAVOK 25/M05 Q1010

Zeit: 20:03 (23:03 UTC)

Prognose

Neuester Wetterbericht von vor 6 Stunden und 3 Minuten, um 17:00 UTC
Gültige Prognose vom 17 um 18 UTC bis 18 um 18 UTC
Wind 10 kt aus Südost
Sichtweite 10 km oder mehr
Leicht bewölkt in der Höhe von 4000 ft

TAF: SAME 171700Z 1718/1818 14010KT 9999 FEW040 TX27/1720Z TN12/1810Z

Wetterbeobachtungen und Prognosen von mehr als 4000 Flughäfen (METAR und TAF Bericht).

Die verfügbaren Stationen werden durch gelbe und rote Markierungen auf der Karte dargestellt.

Führen Sie die Maus auf sie, um den Namen der Station zu sehen.

Darauf klicken, um die Beobachtung von Wetterbeobachtungen und Prognosen zu sehen.

Um die Karte zu ändern : klicken Sie auf den grünen Tasten mit einem schwarzen Kreuz Zum Vergrößern, auf den grünen Button mit einem Gedankenstrich zu verkleinern, oder auf die grünen Pfeile für benachbarte Karten.


METAR-TAF: